createdAt,value
2018-06-08T00:00:52.230Z,33.67
2018-06-08T00:03:20.636Z,32.90
2018-06-08T00:05:49.050Z,33.63
2018-06-08T00:08:17.424Z,36.67
2018-06-08T00:10:45.882Z,33.13
2018-06-08T00:13:14.295Z,29.97
2018-06-08T00:15:42.888Z,33.60
2018-06-08T00:18:11.458Z,31.20
2018-06-08T00:20:40.009Z,36.63
2018-06-08T00:23:08.411Z,35.57
2018-06-08T00:25:36.930Z,34.80
2018-06-08T00:28:05.268Z,32.63
2018-06-08T00:30:33.726Z,40.23
2018-06-08T00:33:02.341Z,40.90
2018-06-08T00:35:30.738Z,36.43
2018-06-08T00:37:59.214Z,34.57
2018-06-08T00:40:27.684Z,41.90
2018-06-08T00:42:56.156Z,38.37
2018-06-08T00:45:25.014Z,36.90
2018-06-08T00:47:53.432Z,38.17
2018-06-08T00:50:21.960Z,37.20
2018-06-08T00:52:50.720Z,42.13
2018-06-08T00:55:19.199Z,36.53
2018-06-08T00:57:52.362Z,37.50
2018-06-08T01:00:20.748Z,45.07
2018-06-08T01:02:49.128Z,42.23
2018-06-08T01:05:17.532Z,43.03
2018-06-08T01:07:46.177Z,44.03
2018-06-08T01:10:14.546Z,51.93
2018-06-08T01:12:43.531Z,43.63
2018-06-08T01:15:12.183Z,49.30
2018-06-08T01:17:40.776Z,59.53
2018-06-08T01:20:09.375Z,49.27
2018-06-08T01:22:37.842Z,53.00
2018-06-08T01:25:06.544Z,52.23
2018-06-08T01:27:34.947Z,53.10
2018-06-08T01:30:03.493Z,50.07
2018-06-08T01:32:31.946Z,46.47
2018-06-08T01:35:00.337Z,56.03
2018-06-08T01:37:29.116Z,43.40
2018-06-08T01:39:57.568Z,40.50
2018-06-08T01:42:26.359Z,43.53
2018-06-08T01:44:54.888Z,47.20
2018-06-08T01:47:23.425Z,47.37
2018-06-08T01:49:51.834Z,46.33
2018-06-08T01:52:20.334Z,40.33
2018-06-08T01:54:48.783Z,48.57
2018-06-08T01:57:17.468Z,51.90
2018-06-08T01:59:45.932Z,46.73
2018-06-08T02:02:14.490Z,47.23
2018-06-08T02:04:43.051Z,51.67
2018-06-08T02:07:11.486Z,48.90
2018-06-08T02:09:39.869Z,59.63
2018-06-08T02:12:08.304Z,48.90
2018-06-08T02:14:36.732Z,51.87
2018-06-08T02:17:05.180Z,58.07
2018-06-08T02:19:33.690Z,55.20
2018-06-08T02:22:02.102Z,58.53
2018-06-08T02:24:30.556Z,65.67
2018-06-08T02:26:59.032Z,63.17
2018-06-08T02:29:27.578Z,63.57
2018-06-08T02:31:56.169Z,65.53
2018-06-08T02:34:24.646Z,74.80
2018-06-08T02:36:53.121Z,64.73
2018-06-08T02:39:21.751Z,63.43
2018-06-08T02:41:50.260Z,61.97
2018-06-08T02:44:18.773Z,67.20
2018-06-08T02:46:47.148Z,66.37
2018-06-08T02:49:15.663Z,67.73
2018-06-08T02:51:44.539Z,65.43
2018-06-08T02:54:13.321Z,71.93
2018-06-08T02:56:45.593Z,63.73
2018-06-08T02:59:14.746Z,66.80
2018-06-08T03:01:43.201Z,62.87
2018-06-08T03:04:11.640Z,72.00
2018-06-08T03:06:40.110Z,66.93
2018-06-08T03:09:08.636Z,59.70
2018-06-08T03:11:37.032Z,71.80
2018-06-08T03:14:05.506Z,59.20
2018-06-08T03:16:33.907Z,58.43
2018-06-08T03:19:02.404Z,64.00
2018-06-08T03:21:30.795Z,71.10
2018-06-08T03:23:59.201Z,65.47
2018-06-08T03:26:30.413Z,61.50
2018-06-08T03:28:59.809Z,65.53
2018-06-08T03:31:28.360Z,60.03
2018-06-08T03:33:56.829Z,62.27
2018-06-08T03:36:25.291Z,73.67
2018-06-08T03:38:53.664Z,64.23
2018-06-08T03:41:21.971Z,65.37
2018-06-08T03:43:50.393Z,70.17
2018-06-08T03:46:18.749Z,76.47
2018-06-08T03:48:47.207Z,58.50
2018-06-08T03:51:15.649Z,67.07
2018-06-08T03:53:44.008Z,66.23
2018-06-08T03:56:12.422Z,61.83
2018-06-08T03:58:41.181Z,56.57
2018-06-08T04:01:09.650Z,62.10
2018-06-08T04:03:38.017Z,66.00
2018-06-08T04:06:06.461Z,68.73
2018-06-08T04:08:34.869Z,61.40
2018-06-08T04:11:03.287Z,63.77
2018-06-08T04:13:31.733Z,64.63
2018-06-08T04:16:00.204Z,59.00
2018-06-08T04:18:28.560Z,61.93
2018-06-08T04:20:57.080Z,65.63
2018-06-08T04:23:25.585Z,67.50
2018-06-08T04:25:54.035Z,68.80
2018-06-08T04:28:22.435Z,57.87
2018-06-08T04:30:50.853Z,74.67
2018-06-08T04:33:19.295Z,64.83
2018-06-08T04:35:48.029Z,64.57
2018-06-08T04:38:16.383Z,73.50
2018-06-08T04:40:44.872Z,71.37
2018-06-08T04:43:13.504Z,73.50
2018-06-08T04:45:41.853Z,73.90
2018-06-08T04:48:10.217Z,80.50
2018-06-08T04:50:38.642Z,76.77
2018-06-08T04:53:07.450Z,84.57
2018-06-08T04:55:35.753Z,82.87
2018-06-08T04:58:04.390Z,77.80
2018-06-08T05:00:32.821Z,82.03
2018-06-08T05:03:01.295Z,85.37
2018-06-08T05:05:29.772Z,79.27
2018-06-08T05:07:58.170Z,84.63
2018-06-08T05:10:27.284Z,90.60
2018-06-08T05:12:55.676Z,80.23
2018-06-08T05:15:24.097Z,80.20
2018-06-08T05:17:52.505Z,80.20
2018-06-08T05:20:20.992Z,89.40
2018-06-08T05:22:50.102Z,85.03
2018-06-08T05:25:18.662Z,97.53
2018-06-08T05:27:47.035Z,88.83
2018-06-08T05:30:19.523Z,84.77
2018-06-08T05:32:48.355Z,96.47
2018-06-08T05:35:16.837Z,89.20
2018-06-08T05:37:45.259Z,91.50
2018-06-08T05:40:13.770Z,90.87
2018-06-08T05:42:42.251Z,85.70
2018-06-08T05:45:10.570Z,82.33
2018-06-08T05:47:39.015Z,84.63
2018-06-08T05:50:07.365Z,87.10
2018-06-08T05:52:35.926Z,80.17
2018-06-08T05:55:04.339Z,79.07
2018-06-08T05:57:32.961Z,77.67
2018-06-08T06:00:01.669Z,78.73
2018-06-08T06:02:30.099Z,74.97
2018-06-08T06:04:58.522Z,98.30
2018-06-08T06:07:27.185Z,79.83
2018-06-08T06:09:55.603Z,79.80
2018-06-08T06:12:24.113Z,92.13
2018-06-08T06:14:53.163Z,78.90
2018-06-08T06:17:22.326Z,76.10
2018-06-08T06:19:50.999Z,90.27
2018-06-08T06:22:19.457Z,93.30
2018-06-08T06:24:47.905Z,78.43
2018-06-08T06:27:16.398Z,81.90
2018-06-08T06:29:44.784Z,72.40
2018-06-08T06:32:13.194Z,71.93
2018-06-08T06:34:41.779Z,85.17
2018-06-08T06:37:10.216Z,81.57
2018-06-08T06:39:38.645Z,98.90
2018-06-08T06:42:07.247Z,95.33
2018-06-08T06:44:35.943Z,104.83
2018-06-08T06:47:04.520Z,103.50
2018-06-08T06:49:32.894Z,102.70
2018-06-08T06:52:01.461Z,106.97
2018-06-08T06:54:29.870Z,128.70
2018-06-08T06:56:58.347Z,120.50
2018-06-08T06:59:39.707Z,117.30
2018-06-08T07:02:08.238Z,125.23
2018-06-08T07:04:37.328Z,115.07
2018-06-08T07:07:07.007Z,99.40
2018-06-08T07:09:35.892Z,103.20
2018-06-08T07:12:05.491Z,103.27
2018-06-08T07:14:34.365Z,102.87
2018-06-08T07:17:02.870Z,94.70
2018-06-08T07:19:31.383Z,105.77
2018-06-08T07:21:59.922Z,96.93
2018-06-08T07:24:28.447Z,91.93
2018-06-08T07:26:56.844Z,85.03
2018-06-08T07:29:25.472Z,84.77
2018-06-08T07:31:53.857Z,85.70
2018-06-08T07:34:22.539Z,88.53
2018-06-08T07:36:51.027Z,93.80
2018-06-08T07:39:19.633Z,91.13
2018-06-08T07:41:48.185Z,99.27
2018-06-08T07:44:16.642Z,85.67
2018-06-08T07:46:45.065Z,75.87
2018-06-08T07:49:13.478Z,80.87
2018-06-08T07:51:42.524Z,77.07
2018-06-08T07:54:11.012Z,65.80
2018-06-08T07:56:39.605Z,76.03
2018-06-08T07:59:07.944Z,68.87
2018-06-08T08:01:36.378Z,76.13
2018-06-08T08:04:04.874Z,67.53
2018-06-08T08:06:33.597Z,85.83
2018-06-08T08:09:02.045Z,86.17
2018-06-08T08:11:30.592Z,78.30
2018-06-08T08:13:58.980Z,83.30
2018-06-08T08:16:27.684Z,84.13
2018-06-08T08:18:56.565Z,80.50
2018-06-08T08:21:28.728Z,92.27
2018-06-08T08:23:59.267Z,83.50
2018-06-08T08:26:28.090Z,81.43
2018-06-08T08:28:56.489Z,89.27
2018-06-08T08:31:25.039Z,86.27
2018-06-08T08:33:53.482Z,89.70
2018-06-08T08:36:22.062Z,100.60
2018-06-08T08:38:50.930Z,102.00
2018-06-08T08:41:19.837Z,101.17
2018-06-08T08:43:48.151Z,97.73
2018-06-08T08:46:16.609Z,86.27
2018-06-08T08:48:45.469Z,100.10
2018-06-08T08:51:13.870Z,105.83
2018-06-08T08:53:43.434Z,90.83
2018-06-08T08:56:11.849Z,93.00
2018-06-08T08:58:40.496Z,84.03
2018-06-08T09:01:08.861Z,80.53
2018-06-08T09:03:37.671Z,85.40
2018-06-08T09:06:06.079Z,98.53
2018-06-08T09:08:34.571Z,98.13
2018-06-08T09:11:03.062Z,94.33
2018-06-08T09:13:31.533Z,90.63
2018-06-08T09:15:59.916Z,91.23
2018-06-08T09:18:28.320Z,97.20
2018-06-08T09:20:56.771Z,96.03
2018-06-08T09:23:25.392Z,105.40
2018-06-08T09:25:53.808Z,105.57
2018-06-08T09:28:22.334Z,105.90
2018-06-08T09:30:51.563Z,110.37
2018-06-08T09:33:20.663Z,132.33
2018-06-08T09:35:49.227Z,134.97
2018-06-08T09:38:18.092Z,146.23
2018-06-08T09:40:46.754Z,150.37
2018-06-08T09:43:15.208Z,166.97
2018-06-08T09:45:43.636Z,159.50
2018-06-08T09:48:13.393Z,178.67
2018-06-08T09:50:41.826Z,171.43
2018-06-08T09:53:10.250Z,193.60
2018-06-08T09:55:38.676Z,181.80
2018-06-08T09:58:08.482Z,201.93
2018-06-08T10:00:41.020Z,184.43
2018-06-08T10:03:09.901Z,169.60
2018-06-08T10:05:38.372Z,186.63
2018-06-08T10:08:08.386Z,189.40
2018-06-08T10:10:36.777Z,188.40
2018-06-08T10:13:05.097Z,186.30
2018-06-08T10:15:33.839Z,176.77
2018-06-08T10:18:03.288Z,191.73
2018-06-08T10:20:31.786Z,170.57
2018-06-08T10:23:00.950Z,170.87
2018-06-08T10:25:29.639Z,153.80
2018-06-08T10:27:58.200Z,175.53
2018-06-08T10:30:27.725Z,169.50
2018-06-08T10:32:56.436Z,157.77
2018-06-08T10:35:25.359Z,187.10
2018-06-08T10:37:53.979Z,176.80
2018-06-08T10:40:22.572Z,170.00
2018-06-08T10:42:51.369Z,185.70
2018-06-08T10:45:19.817Z,166.10
2018-06-08T10:47:48.349Z,137.20
2018-06-08T10:50:16.866Z,134.47
2018-06-08T10:52:45.406Z,125.70
2018-06-08T10:55:14.494Z,131.90
2018-06-08T10:57:42.911Z,121.87
2018-06-08T11:00:11.462Z,113.73
2018-06-08T11:02:39.954Z,114.47
2018-06-08T11:05:08.627Z,115.33
2018-06-08T11:07:37.138Z,111.73
2018-06-08T11:10:06.708Z,106.90
2018-06-08T11:12:35.269Z,94.00
2018-06-08T11:15:04.083Z,87.93
2018-06-08T11:17:32.700Z,92.90
2018-06-08T11:20:01.214Z,92.07
2018-06-08T11:22:29.672Z,88.90
2018-06-08T11:24:58.320Z,87.10
2018-06-08T11:27:27.633Z,90.33
2018-06-08T11:29:56.028Z,88.10
2018-06-08T11:32:30.344Z,73.97
2018-06-08T11:34:58.904Z,84.43
2018-06-08T11:37:27.448Z,79.83
2018-06-08T11:39:56.343Z,68.77
2018-06-08T11:42:25.257Z,67.43
2018-06-08T11:44:53.918Z,77.77
2018-06-08T11:47:23.377Z,65.90
2018-06-08T11:49:52.926Z,69.30
2018-06-08T11:52:21.500Z,64.13
2018-06-08T11:54:50.719Z,65.53
2018-06-08T11:57:19.255Z,57.70
2018-06-08T11:59:47.722Z,69.97
2018-06-08T12:02:16.338Z,51.03
2018-06-08T12:04:45.056Z,56.30
2018-06-08T12:07:13.809Z,55.13
2018-06-08T12:09:42.417Z,60.00
2018-06-08T12:12:10.920Z,55.17
2018-06-08T12:14:39.323Z,54.03
2018-06-08T12:17:07.808Z,55.50
2018-06-08T12:19:37.526Z,61.53
2018-06-08T12:22:07.005Z,51.70
2018-06-08T12:24:35.568Z,53.90
2018-06-08T12:27:04.773Z,58.73
2018-06-08T12:29:33.516Z,51.20
2018-06-08T12:32:02.261Z,52.27
2018-06-08T12:34:30.704Z,49.67
2018-06-08T12:36:59.450Z,45.13
2018-06-08T12:39:28.177Z,51.90
2018-06-08T12:41:56.649Z,42.27
2018-06-08T12:44:25.345Z,48.73
2018-06-08T12:46:53.924Z,45.50
2018-06-08T12:49:22.385Z,44.20
2018-06-08T12:51:50.941Z,45.23
2018-06-08T12:54:19.887Z,43.27
2018-06-08T12:56:48.326Z,55.10
2018-06-08T12:59:16.968Z,43.33
2018-06-08T13:01:49.824Z,47.90
2018-06-08T13:04:23.266Z,40.30
2018-06-08T13:06:51.746Z,43.43
2018-06-08T13:09:21.246Z,40.33
2018-06-08T13:11:52.261Z,35.80
2018-06-08T13:14:20.680Z,38.47
2018-06-08T13:16:50.024Z,36.17
2018-06-08T13:19:18.474Z,35.97
2018-06-08T13:21:47.054Z,32.73
2018-06-08T13:24:15.927Z,33.63
2018-06-08T13:26:45.413Z,40.63
2018-06-08T13:29:13.878Z,44.13
2018-06-08T13:31:47.844Z,38.43
2018-06-08T13:34:17.446Z,47.67
2018-06-08T13:36:47.285Z,42.77
2018-06-08T13:39:16.991Z,43.93
2018-06-08T13:41:45.434Z,46.70
2018-06-08T13:44:13.958Z,41.30
2018-06-08T13:46:48.161Z,39.73
2018-06-08T13:49:16.624Z,38.40
2018-06-08T13:51:45.461Z,44.70
2018-06-08T13:54:15.543Z,38.37
2018-06-08T13:56:47.198Z,40.27
2018-06-08T13:59:17.037Z,40.73
2018-06-08T14:01:49.804Z,48.03
2018-06-08T14:04:18.369Z,41.33
2018-06-08T14:06:46.794Z,42.97
2018-06-08T14:09:15.892Z,44.10
2018-06-08T14:12:01.628Z,40.63
2018-06-08T14:14:30.029Z,48.10
2018-06-08T14:16:58.879Z,49.43
2018-06-08T14:19:27.330Z,48.50
2018-06-08T14:21:56.680Z,48.83
2018-06-08T14:24:25.245Z,42.47
2018-06-08T14:26:54.396Z,45.80
2018-06-08T14:29:23.591Z,52.47
2018-06-08T14:31:52.897Z,53.07
2018-06-08T14:34:22.531Z,46.03
2018-06-08T14:36:51.959Z,44.63
2018-06-08T14:39:22.232Z,47.20
2018-06-08T14:41:51.385Z,46.53
2018-06-08T14:44:24.519Z,46.83
2018-06-08T14:46:53.097Z,47.43
2018-06-08T14:49:22.146Z,46.63
2018-06-08T14:51:50.700Z,49.03
2018-06-08T14:54:20.183Z,53.17
2018-06-08T14:56:48.629Z,53.70
2018-06-08T14:59:17.627Z,50.77
2018-06-08T15:01:47.148Z,49.27
2018-06-08T15:04:15.742Z,50.47
2018-06-08T15:06:48.401Z,51.73
2018-06-08T15:09:19.295Z,49.10
2018-06-08T15:11:47.854Z,48.67
2018-06-08T15:14:17.041Z,57.73
2018-06-08T15:16:46.557Z,51.50
2018-06-08T15:19:15.415Z,53.07
2018-06-08T15:21:43.913Z,48.20
2018-06-08T15:24:14.339Z,57.70
2018-06-08T15:26:43.548Z,48.63
2018-06-08T15:29:12.073Z,49.93
2018-06-08T15:31:41.043Z,52.40
2018-06-08T15:34:10.780Z,54.30
2018-06-08T15:36:39.749Z,62.17
2018-06-08T15:39:08.817Z,67.57
2018-06-08T15:41:37.428Z,50.37
2018-06-08T15:44:06.785Z,55.70
2018-06-08T15:46:35.453Z,59.67
2018-06-08T15:49:03.703Z,52.87
2018-06-08T15:51:34.186Z,57.93
2018-06-08T15:54:05.118Z,58.80
2018-06-08T15:56:34.121Z,64.07
2018-06-08T15:59:03.925Z,56.20
2018-06-08T16:01:32.517Z,61.87
2018-06-08T16:04:01.920Z,61.10
2018-06-08T16:06:33.220Z,55.10
2018-06-08T16:09:01.789Z,56.87
2018-06-08T16:11:30.476Z,60.30
2018-06-08T16:13:58.935Z,65.13
2018-06-08T16:16:28.043Z,76.17
2018-06-08T16:18:56.465Z,65.20
2018-06-08T16:21:25.129Z,58.07
2018-06-08T16:23:53.523Z,60.30
2018-06-08T16:26:22.112Z,64.80
2018-06-08T16:28:50.781Z,69.40
2018-06-08T16:31:19.845Z,58.97
2018-06-08T16:33:48.383Z,60.23
2018-06-08T16:36:16.992Z,59.00
2018-06-08T16:38:45.512Z,57.43
2018-06-08T16:41:14.987Z,53.87
2018-06-08T16:43:43.428Z,64.33
2018-06-08T16:46:12.060Z,59.10
2018-06-08T16:48:40.706Z,61.77
2018-06-08T16:51:09.114Z,57.67
2018-06-08T16:53:37.779Z,57.67
2018-06-08T16:56:06.258Z,60.53
2018-06-08T16:58:34.727Z,58.73
2018-06-08T17:01:03.225Z,48.43
2018-06-08T17:03:32.029Z,48.40
2018-06-08T17:06:01.748Z,50.70
2018-06-08T17:08:31.271Z,50.00
2018-06-08T17:10:59.849Z,46.07
2018-06-08T17:13:28.845Z,46.17
2018-06-08T17:15:57.454Z,46.30
2018-06-08T17:18:25.909Z,48.90
2018-06-08T17:20:54.340Z,39.60
2018-06-08T17:23:23.026Z,39.50
2018-06-08T17:25:51.488Z,39.27
2018-06-08T17:28:19.910Z,39.40
2018-06-08T17:30:48.497Z,39.77
2018-06-08T17:33:17.248Z,48.20
2018-06-08T17:35:45.909Z,40.43
2018-06-08T17:38:14.407Z,46.90
2018-06-08T17:41:02.192Z,42.17
2018-06-08T17:43:30.673Z,36.80
2018-06-08T17:45:59.347Z,42.73
2018-06-08T17:48:28.921Z,47.00
2018-06-08T17:51:09.448Z,40.60
2018-06-08T17:53:37.876Z,44.97
2018-06-08T17:56:06.393Z,48.30
2018-06-08T17:58:34.978Z,41.30
2018-06-08T18:01:04.625Z,45.30
2018-06-08T18:03:33.267Z,46.07
2018-06-08T18:06:07.663Z,45.67
2018-06-08T18:08:36.412Z,47.37
2018-06-08T18:11:05.206Z,43.90
2018-06-08T18:13:33.726Z,43.70
2018-06-08T18:16:02.829Z,39.00
2018-06-08T18:18:31.432Z,39.90
2018-06-08T18:21:00.262Z,45.77
2018-06-08T18:23:28.914Z,43.20
2018-06-08T18:25:57.786Z,47.53
2018-06-08T18:28:30.137Z,44.70
2018-06-08T18:30:59.859Z,53.03
2018-06-08T18:33:34.367Z,46.60
2018-06-08T18:36:04.025Z,47.73
2018-06-08T18:38:32.758Z,55.93
2018-06-08T18:41:04.368Z,43.20
2018-06-08T18:43:39.840Z,53.23
2018-06-08T18:46:09.334Z,52.53
2018-06-08T18:48:38.623Z,45.73
2018-06-08T18:51:07.371Z,56.33
2018-06-08T18:53:36.547Z,48.47
2018-06-08T18:56:06.960Z,47.60
2018-06-08T18:58:35.589Z,52.43
2018-06-08T19:01:04.144Z,47.23
2018-06-08T19:03:36.012Z,43.10
2018-06-08T19:06:04.764Z,41.83
2018-06-08T19:08:34.465Z,48.17
2018-06-08T19:11:03.607Z,47.70
2018-06-08T19:13:32.452Z,48.40
2018-06-08T19:16:02.457Z,46.33
2018-06-08T19:18:31.241Z,49.10
2018-06-08T19:21:01.155Z,61.10
2018-06-08T19:23:29.687Z,58.60
2018-06-08T19:26:00.116Z,53.97
2018-06-08T19:31:10.996Z,51.30
2018-06-08T19:33:39.937Z,47.97
2018-06-08T19:36:09.319Z,54.67
2018-06-08T19:38:38.258Z,63.97
2018-06-08T19:41:06.771Z,53.23
2018-06-08T19:43:35.957Z,53.70
2018-06-08T19:46:05.469Z,57.93
2018-06-08T19:48:34.176Z,67.60
2018-06-08T19:51:03.814Z,68.73
2018-06-08T19:53:32.633Z,68.27
2018-06-08T19:56:01.085Z,61.23
2018-06-08T19:58:30.471Z,56.40
2018-06-08T20:00:58.803Z,60.10
2018-06-08T20:03:28.826Z,56.20
2018-06-08T20:05:56.972Z,61.50
2018-06-08T20:08:25.653Z,232.67
2018-06-08T20:10:54.274Z,78.17
2018-06-08T20:13:23.033Z,65.07
2018-06-08T20:15:53.067Z,75.07
2018-06-08T20:18:21.628Z,69.07
2018-06-08T20:20:50.593Z,64.70
2018-06-08T20:23:19.180Z,64.83
2018-06-08T20:25:47.755Z,73.00
2018-06-08T20:28:16.464Z,80.40
2018-06-08T20:30:46.688Z,75.70
2018-06-08T20:33:15.521Z,71.50
2018-06-08T20:35:44.083Z,79.60
2018-06-08T20:38:12.682Z,71.63
2018-06-08T20:40:41.264Z,80.40
2018-06-08T20:43:11.022Z,74.37
2018-06-08T20:45:39.447Z,77.67
2018-06-08T20:48:08.002Z,79.00
2018-06-08T20:50:36.588Z,82.23
2018-06-08T20:53:06.078Z,80.57
2018-06-08T20:55:34.867Z,83.37
2018-06-08T20:58:03.444Z,91.00
2018-06-08T21:00:33.018Z,79.87
2018-06-08T21:03:01.504Z,72.27
2018-06-08T21:05:30.197Z,90.33
2018-06-08T21:07:59.604Z,83.83
2018-06-08T21:10:28.746Z,84.00
2018-06-08T21:12:57.314Z,80.70
2018-06-08T21:15:25.786Z,79.43
2018-06-08T21:17:54.287Z,88.63
2018-06-08T21:20:22.748Z,91.13
2018-06-08T21:22:51.786Z,89.50
2018-06-08T21:25:20.235Z,86.77
2018-06-08T21:27:48.702Z,87.77
2018-06-08T21:30:17.228Z,96.80
2018-06-08T21:32:45.960Z,95.53
2018-06-08T21:35:14.474Z,89.07
2018-06-08T21:37:42.958Z,89.00
2018-06-08T21:40:11.480Z,100.37
2018-06-08T21:42:40.710Z,92.70
2018-06-08T21:45:09.299Z,95.10
2018-06-08T21:47:37.726Z,86.77
2018-06-08T21:50:06.505Z,92.87
2018-06-08T21:52:34.987Z,89.23
2018-06-08T21:55:03.474Z,100.47
2018-06-08T21:57:32.225Z,96.50
2018-06-08T22:00:00.858Z,88.77
2018-06-08T22:02:29.446Z,93.90
2018-06-08T22:04:58.185Z,100.07
2018-06-08T22:07:26.806Z,88.37
2018-06-08T22:09:55.301Z,95.03
2018-06-08T22:12:23.808Z,101.17
2018-06-08T22:14:52.350Z,99.50
2018-06-08T22:17:21.838Z,99.13
2018-06-08T22:19:50.348Z,96.77
2018-06-08T22:22:19.279Z,108.67
2018-06-08T22:24:47.789Z,111.40
2018-06-08T22:27:16.432Z,106.50
2018-06-08T22:29:44.882Z,99.50
2018-06-08T22:32:13.405Z,102.47
2018-06-08T22:34:42.027Z,99.03
2018-06-08T22:37:10.918Z,108.83
2018-06-08T22:39:40.104Z,135.53
2018-06-08T22:42:08.523Z,108.67
2018-06-08T22:44:37.232Z,114.47
2018-06-08T22:47:05.753Z,108.00
2018-06-08T22:49:34.272Z,115.07
2018-06-08T22:52:02.852Z,109.17
2018-06-08T22:54:31.990Z,108.93
2018-06-08T22:57:00.753Z,113.00
2018-06-08T22:59:29.295Z,110.83
2018-06-08T23:01:57.823Z,102.47
2018-06-08T23:04:26.202Z,94.20
2018-06-08T23:06:55.007Z,89.23
2018-06-08T23:09:23.497Z,88.13
2018-06-08T23:11:51.893Z,93.17
2018-06-08T23:14:20.522Z,88.77
2018-06-08T23:16:49.198Z,84.60
2018-06-08T23:19:17.731Z,80.40
2018-06-08T23:21:46.234Z,85.87
2018-06-08T23:24:14.737Z,77.83
2018-06-08T23:26:43.144Z,73.07
2018-06-08T23:29:11.572Z,85.67
2018-06-08T23:31:40.218Z,78.40
2018-06-08T23:34:09.667Z,60.50
2018-06-08T23:36:38.114Z,69.50
2018-06-08T23:39:07.980Z,63.30
2018-06-08T23:41:36.685Z,73.90
2018-06-08T23:44:05.275Z,67.20
2018-06-08T23:46:34.371Z,56.97
2018-06-08T23:49:03.613Z,54.97
2018-06-08T23:51:32.275Z,60.70
2018-06-08T23:54:03.073Z,58.00
2018-06-08T23:56:31.794Z,50.63
2018-06-08T23:59:00.343Z,51.10
